Weather at Beltzville Airport

Public forecast

Using degrees Fahrenheit for public forecast. Weather courtesy of forecast.io.

Closest aviation weather report (METAR) to Beltzville Airport

Closest report is Jake Arner Memorial Airport, 6.1 nm (11.3 km) WSW. Retrieved 2021/08/03 19:15 UTC (18 minutes ago):

K22N 031915Z AUTO 00000KT 10SM CLR 24/12 A3011 RMK AO2

Closest aviation forecast (TAF) to Beltzville Airport

Closest forecast is Lehigh Valley International Airport, 14.5 nm (26.9 km) SE. Retrieved 2021/08/03 18:24 UTC (1 hour ago):

TAF KABE 031720Z 0318/0418 18004KT P6SM BKN250 FM040000 VRB03KT P6SM BKN250 FM041500 06005KT P6SM BKN250